createdAt,value
2022-12-08T00:01:49.891Z,93872.53
2022-12-08T00:04:17.346Z,93863.72
2022-12-08T00:06:44.555Z,93856.28
2022-12-08T00:09:21.298Z,93853.28
2022-12-08T00:12:01.686Z,93838.16
2022-12-08T00:14:37.424Z,93841.25
2022-12-08T00:17:05.550Z,93836.66
2022-12-08T00:19:32.892Z,93843.28
2022-12-08T00:21:59.702Z,93836.25
2022-12-08T00:24:30.605Z,93834.13
2022-12-08T00:26:57.559Z,93833.19
2022-12-08T00:29:24.598Z,93831.28
2022-12-08T00:31:51.414Z,93837.50
2022-12-08T00:34:18.422Z,93837.25
2022-12-08T00:36:46.618Z,93833.19
2022-12-08T00:39:14.433Z,93832.63
2022-12-08T00:41:41.591Z,93819.53
2022-12-08T00:44:08.423Z,93827.38
2022-12-08T00:50:17.375Z,93821.22
2022-12-08T00:52:44.649Z,93825.31
2022-12-08T00:55:11.529Z,93825.25
2022-12-08T00:57:38.285Z,93821.50
2022-12-08T01:00:06.115Z,93822.94
2022-12-08T01:02:34.073Z,93819.53
2022-12-08T01:05:01.120Z,93823.78
2022-12-08T01:11:08.692Z,93819.38
2022-12-08T01:13:35.701Z,93819.97
2022-12-08T01:16:02.790Z,93818.16
2022-12-08T01:18:30.569Z,93821.00
2022-12-08T01:21:03.379Z,93810.88
2022-12-08T01:23:30.141Z,93822.59
2022-12-08T01:29:51.481Z,93820.09
2022-12-08T01:32:18.245Z,93808.75
2022-12-08T01:34:45.202Z,93808.38
2022-12-08T01:37:11.977Z,93813.28
2022-12-08T01:39:38.796Z,93812.63
2022-12-08T01:42:05.542Z,93806.03
2022-12-08T01:44:38.665Z,93804.81
2022-12-08T01:47:05.775Z,93797.97
2022-12-08T01:49:33.482Z,93797.88
2022-12-08T01:52:05.964Z,93795.53
2022-12-08T01:54:34.794Z,93790.75
2022-12-08T01:57:07.614Z,93791.72
2022-12-08T01:59:36.580Z,93791.03
2022-12-08T02:02:03.548Z,93791.72
2022-12-08T02:04:30.493Z,93789.97
2022-12-08T02:06:57.403Z,93788.59
2022-12-08T02:09:24.137Z,93789.84
2022-12-08T02:11:52.205Z,93786.09
2022-12-08T02:14:19.296Z,93783.75
2022-12-08T02:17:25.060Z,93773.56
2022-12-08T02:20:17.644Z,93778.44
2022-12-08T02:23:42.931Z,93777.16
2022-12-08T02:26:36.948Z,93768.94
2022-12-08T02:29:24.924Z,93767.38
2022-12-08T02:32:07.368Z,93763.69
2022-12-08T02:34:42.045Z,93758.34
2022-12-08T02:37:35.357Z,93750.66
2022-12-08T02:40:22.164Z,93747.81
2022-12-08T02:42:55.368Z,93752.09
2022-12-08T02:45:34.678Z,93743.69
2022-12-08T02:48:21.311Z,93741.91
2022-12-08T02:50:48.039Z,93735.25
2022-12-08T02:56:03.489Z,93724.41
2022-12-08T02:58:59.010Z,93735.25
2022-12-08T03:01:42.250Z,93725.66
2022-12-08T03:04:17.499Z,93724.13
2022-12-08T03:06:56.304Z,93712.34
2022-12-08T03:09:44.793Z,93711.72
2022-12-08T03:12:34.304Z,93717.44
2022-12-08T03:15:05.773Z,93714.81
2022-12-08T03:17:32.849Z,93708.91
2022-12-08T03:20:01.687Z,93716.13
2022-12-08T03:22:29.324Z,93717.19
2022-12-08T03:24:56.038Z,93712.06
2022-12-08T03:27:24.985Z,93713.88
2022-12-08T03:29:53.179Z,93709.88
2022-12-08T03:32:24.083Z,93715.78
2022-12-08T03:34:51.360Z,93705.88
2022-12-08T03:37:18.541Z,93705.38
2022-12-08T03:39:45.252Z,93705.44
2022-12-08T03:42:12.796Z,93702.38
2022-12-08T03:44:39.507Z,93694.34
2022-12-08T03:47:06.220Z,93698.25
2022-12-08T03:49:32.936Z,93691.84
2022-12-08T03:51:59.984Z,93688.84
2022-12-08T03:54:27.180Z,93687.97
2022-12-08T03:56:53.957Z,93685.31
2022-12-08T03:59:21.006Z,93681.78
2022-12-08T04:01:47.904Z,93680.13
2022-12-08T04:04:14.649Z,93674.31
2022-12-08T04:06:41.736Z,93683.09
2022-12-08T04:09:08.464Z,93674.94
2022-12-08T04:11:35.372Z,93669.47
2022-12-08T04:14:19.920Z,93674.75
2022-12-08T04:16:57.216Z,93654.19
2022-12-08T04:19:24.288Z,93653.72
2022-12-08T04:25:31.696Z,93661.59
2022-12-08T04:27:58.780Z,93658.78
2022-12-08T04:30:25.499Z,93661.78
2022-12-08T04:32:52.278Z,93666.41
2022-12-08T04:35:19.323Z,93659.09
2022-12-08T04:37:46.104Z,93656.75
2022-12-08T04:40:14.215Z,93665.88
2022-12-08T04:42:40.936Z,93669.53
2022-12-08T04:45:09.733Z,93662.31
2022-12-08T04:47:36.448Z,93667.81
2022-12-08T04:50:04.433Z,93667.81
2022-12-08T04:52:31.516Z,93668.84
2022-12-08T04:54:59.385Z,93665.50
2022-12-08T04:57:32.216Z,93664.59
2022-12-08T04:59:59.063Z,93667.13
2022-12-08T05:02:25.961Z,93659.47
2022-12-08T05:04:53.286Z,93658.28
2022-12-08T05:07:20.799Z,93659.31
2022-12-08T05:09:47.517Z,93657.44
2022-12-08T05:12:14.258Z,93657.94
2022-12-08T05:14:41.291Z,93654.47
2022-12-08T05:17:09.817Z,93656.00
2022-12-08T05:19:36.777Z,93655.63
2022-12-08T05:22:03.573Z,93659.59
2022-12-08T05:24:30.284Z,93654.06
2022-12-08T05:26:57.624Z,93657.56
2022-12-08T05:29:25.036Z,93646.47
2022-12-08T05:31:51.806Z,93649.72
2022-12-08T05:34:18.928Z,93650.59
2022-12-08T05:36:45.629Z,93654.34
2022-12-08T05:39:13.219Z,93649.72
2022-12-08T05:41:40.611Z,93644.47
2022-12-08T05:44:07.428Z,93646.03
2022-12-08T05:46:34.649Z,93635.31
2022-12-08T05:49:01.742Z,93643.16
2022-12-08T05:51:28.559Z,93653.88
2022-12-08T05:53:55.440Z,93659.78
2022-12-08T05:56:22.417Z,93647.31
2022-12-08T05:58:49.210Z,93647.47
2022-12-08T06:01:27.280Z,93645.19
2022-12-08T06:03:54.201Z,93649.44
2022-12-08T06:06:20.918Z,93656.00
2022-12-08T06:08:49.417Z,93647.34
2022-12-08T06:11:24.081Z,93648.34
2022-12-08T06:14:27.928Z,93648.25
2022-12-08T06:16:54.905Z,93646.44
2022-12-08T06:19:21.724Z,93651.84
2022-12-08T06:21:48.825Z,93642.19
2022-12-08T06:24:16.071Z,93640.03
2022-12-08T06:26:43.102Z,93640.38
2022-12-08T06:29:11.788Z,93640.47
2022-12-08T06:31:39.046Z,93636.28
2022-12-08T06:34:05.852Z,93638.31
2022-12-08T06:36:32.775Z,93642.03
2022-12-08T06:38:59.487Z,93629.97
2022-12-08T06:41:26.282Z,93634.63
2022-12-08T06:43:56.053Z,93640.75
2022-12-08T06:46:23.278Z,93644.13
2022-12-08T06:48:50.207Z,93647.88
2022-12-08T06:51:18.853Z,93643.22
2022-12-08T06:53:45.923Z,93646.81
2022-12-08T06:56:13.067Z,93636.94
2022-12-08T06:58:39.808Z,93641.84
2022-12-08T07:01:10.751Z,93642.19
2022-12-08T07:03:37.983Z,93629.97
2022-12-08T07:06:05.029Z,93638.41
2022-12-08T07:08:32.720Z,93632.22
2022-12-08T07:10:59.666Z,93634.44
2022-12-08T07:13:26.848Z,93641.09
2022-12-08T07:15:53.629Z,93646.13
2022-12-08T07:18:20.640Z,93642.56
2022-12-08T07:20:47.559Z,93631.09
2022-12-08T07:23:14.649Z,93636.00
2022-12-08T07:25:41.451Z,93632.47
2022-12-08T07:28:09.593Z,93628.72
2022-12-08T07:30:36.445Z,93629.81
2022-12-08T07:33:04.949Z,93638.66
2022-12-08T07:35:32.827Z,93630.28
2022-12-08T07:38:02.827Z,93639.47
2022-12-08T07:40:29.895Z,93636.78
2022-12-08T07:42:56.662Z,93637.84
2022-12-08T07:45:28.301Z,93639.22
2022-12-08T07:47:58.051Z,93638.88
2022-12-08T07:50:25.373Z,93632.34
2022-12-08T07:52:54.236Z,93635.22
2022-12-08T07:55:20.984Z,93636.44
2022-12-08T07:57:47.884Z,93628.09
2022-12-08T08:00:15.106Z,93632.31
2022-12-08T08:02:42.341Z,93628.34
2022-12-08T08:05:09.790Z,93629.22
2022-12-08T08:07:36.829Z,93634.69
2022-12-08T08:10:04.575Z,93630.03
2022-12-08T08:12:32.515Z,93630.69
2022-12-08T08:15:00.371Z,93631.91
2022-12-08T08:17:27.833Z,93630.47
2022-12-08T08:19:54.885Z,93636.59
2022-12-08T08:22:21.956Z,93636.03
2022-12-08T08:24:48.687Z,93634.59
2022-12-08T08:27:15.521Z,93629.50
2022-12-08T08:29:43.325Z,93623.66
2022-12-08T08:32:10.038Z,93626.91
2022-12-08T08:34:36.780Z,93628.22
2022-12-08T08:37:03.856Z,93627.47
2022-12-08T08:39:30.970Z,93620.66
2022-12-08T08:41:57.736Z,93628.03
2022-12-08T08:44:24.817Z,93625.50
2022-12-08T08:46:51.586Z,93622.53
2022-12-08T08:49:18.477Z,93624.69
2022-12-08T08:51:45.210Z,93621.19
2022-12-08T08:54:12.084Z,93615.44
2022-12-08T08:56:38.820Z,93621.09
2022-12-08T08:59:05.843Z,93616.81
2022-12-08T09:01:33.601Z,93620.41
2022-12-08T09:04:00.400Z,93615.13
2022-12-08T09:06:27.304Z,93597.88
2022-12-08T09:08:56.993Z,93605.47
2022-12-08T09:11:24.245Z,93610.25
2022-12-08T09:13:51.492Z,93613.00
2022-12-08T09:16:19.852Z,93604.03
2022-12-08T09:18:46.928Z,93601.84
2022-12-08T09:21:14.743Z,93602.72
2022-12-08T09:23:44.465Z,93600.84
2022-12-08T09:26:11.656Z,93592.03
2022-12-08T09:28:38.469Z,93579.53
2022-12-08T09:31:05.336Z,93590.03
2022-12-08T09:33:32.226Z,93586.31
2022-12-08T09:36:03.323Z,93592.78
2022-12-08T09:38:30.456Z,93590.28
2022-12-08T09:41:00.170Z,93596.56
2022-12-08T09:44:07.269Z,93605.66
2022-12-08T09:46:37.204Z,93601.88
2022-12-08T09:49:04.785Z,93608.06
2022-12-08T09:51:36.984Z,93603.31
2022-12-08T09:54:10.134Z,93584.00
2022-12-08T09:56:37.185Z,93582.75
2022-12-08T09:59:23.044Z,93576.00
2022-12-08T10:01:52.775Z,93577.66
2022-12-08T10:04:31.577Z,93584.22
2022-12-08T10:07:35.840Z,93570.63
2022-12-08T10:10:04.452Z,93568.19
2022-12-08T10:12:37.911Z,93565.16
2022-12-08T10:15:49.705Z,93570.28
2022-12-08T10:18:36.275Z,93553.94
2022-12-08T10:21:24.800Z,93545.63
2022-12-08T10:23:53.912Z,93543.44
2022-12-08T10:26:21.401Z,93541.69
2022-12-08T10:28:48.600Z,93535.66
2022-12-08T10:31:39.085Z,93532.78
2022-12-08T10:34:35.101Z,93533.13
2022-12-08T10:37:02.473Z,93526.19
2022-12-08T10:39:42.569Z,93529.38
2022-12-08T10:42:15.451Z,93527.56
2022-12-08T10:45:17.760Z,93528.91
2022-12-08T10:47:45.728Z,93522.44
2022-12-08T10:50:34.923Z,93515.81
2022-12-08T10:53:07.251Z,93513.25
2022-12-08T10:55:44.964Z,93516.59
2022-12-08T10:58:30.189Z,93511.06
2022-12-08T11:01:28.485Z,93510.28
2022-12-08T11:03:56.905Z,93511.84
2022-12-08T11:06:33.178Z,93503.81
2022-12-08T11:09:05.364Z,93503.63
2022-12-08T11:11:55.096Z,93494.09
2022-12-08T11:14:33.440Z,93494.84
2022-12-08T11:17:06.914Z,93490.91
2022-12-08T11:19:37.934Z,93500.09
2022-12-08T11:22:42.222Z,93494.16
2022-12-08T11:25:22.922Z,93480.44
2022-12-08T11:27:50.810Z,93486.81
2022-12-08T11:30:23.677Z,93484.72
2022-12-08T11:32:56.127Z,93480.50
2022-12-08T11:35:29.300Z,93479.69
2022-12-08T11:38:08.097Z,93475.72
2022-12-08T11:40:46.061Z,93467.06
2022-12-08T11:43:39.305Z,93468.97
2022-12-08T11:46:14.946Z,93458.78
2022-12-08T11:48:54.092Z,93458.16
2022-12-08T11:51:39.602Z,93455.56
2022-12-08T11:54:22.827Z,93459.16
2022-12-08T11:57:03.927Z,93452.47
2022-12-08T11:59:44.841Z,93461.91
2022-12-08T12:02:31.094Z,93451.72
2022-12-08T12:05:39.886Z,93460.81
2022-12-08T12:08:30.129Z,93449.19
2022-12-08T12:11:06.951Z,93458.00
2022-12-08T12:14:20.113Z,93448.28
2022-12-08T12:17:05.723Z,93440.00
2022-12-08T12:19:37.743Z,93442.06
2022-12-08T12:22:15.754Z,93435.44
2022-12-08T12:24:44.328Z,93427.97
2022-12-08T12:27:17.005Z,93423.03
2022-12-08T12:29:53.983Z,93417.22
2022-12-08T12:32:22.889Z,93414.69
2022-12-08T12:34:57.709Z,93419.34
2022-12-08T12:37:25.704Z,93417.22
2022-12-08T12:39:52.348Z,93413.50
2022-12-08T12:42:36.845Z,93403.47
2022-12-08T12:45:16.035Z,93406.03
2022-12-08T12:47:56.924Z,93406.75
2022-12-08T12:50:32.797Z,93405.41
2022-12-08T12:53:12.300Z,93401.28
2022-12-08T12:55:46.621Z,93401.31
2022-12-08T12:58:39.956Z,93404.59
2022-12-08T13:01:34.780Z,93407.13
2022-12-08T13:04:08.569Z,93399.38
2022-12-08T13:06:41.308Z,93392.34
2022-12-08T13:09:42.771Z,93402.41
2022-12-08T13:12:19.635Z,93399.19
2022-12-08T13:14:47.228Z,93390.06
2022-12-08T13:17:17.493Z,93379.69
2022-12-08T13:19:48.824Z,93377.38
2022-12-08T13:22:55.831Z,93382.41
2022-12-08T13:25:47.116Z,93381.84
2022-12-08T13:28:30.917Z,93382.50
2022-12-08T13:30:59.347Z,93380.34
2022-12-08T13:33:29.021Z,93376.78
2022-12-08T13:36:13.349Z,93374.38
2022-12-08T13:38:40.409Z,93368.69
2022-12-08T13:41:13.530Z,93364.16
2022-12-08T13:44:24.783Z,93358.16
2022-12-08T13:47:31.639Z,93353.72
2022-12-08T13:58:36.658Z,93346.94
2022-12-08T14:01:19.412Z,93343.97
2022-12-08T14:04:28.513Z,93341.75
2022-12-08T14:06:40.532Z,93339.13
2022-12-08T14:09:11.351Z,93337.06
2022-12-08T14:11:40.047Z,93338.94
2022-12-08T14:14:14.527Z,93329.56
2022-12-08T14:17:04.430Z,93336.09
2022-12-08T14:19:34.610Z,93334.84
2022-12-08T14:22:17.456Z,93337.59
2022-12-08T14:24:45.401Z,93327.78
2022-12-08T14:27:15.850Z,93323.91
2022-12-08T14:29:54.161Z,93325.63
2022-12-08T14:32:34.358Z,93332.75
2022-12-08T14:35:35.801Z,93317.47
2022-12-08T14:38:09.944Z,93318.34
2022-12-08T14:40:44.911Z,93317.84
2022-12-08T14:43:20.307Z,93322.06
2022-12-08T14:46:01.173Z,93330.41
2022-12-08T14:48:48.051Z,93325.78
2022-12-08T14:51:27.602Z,93321.91
2022-12-08T14:54:23.468Z,93317.19
2022-12-08T14:56:54.888Z,93326.03
2022-12-08T14:59:31.174Z,93323.00
2022-12-08T15:02:25.209Z,93313.91
2022-12-08T15:05:06.193Z,93314.94
2022-12-08T15:07:50.697Z,93317.97
2022-12-08T15:10:23.208Z,93316.25
2022-12-08T15:13:11.514Z,93311.09
2022-12-08T15:15:51.731Z,93308.84
2022-12-08T15:18:37.162Z,93309.06
2022-12-08T15:21:08.720Z,93303.94
2022-12-08T15:23:50.285Z,93305.38
2022-12-08T15:26:24.331Z,93308.63
2022-12-08T15:28:51.582Z,93299.03
2022-12-08T15:31:19.094Z,93302.50
2022-12-08T15:33:46.336Z,93300.19
2022-12-08T15:36:18.585Z,93304.59
2022-12-08T15:38:45.624Z,93303.66
2022-12-08T15:41:15.530Z,93300.84
2022-12-08T15:43:42.961Z,93297.53
2022-12-08T15:46:10.086Z,93299.75
2022-12-08T15:48:37.201Z,93297.22
2022-12-08T15:51:04.267Z,93293.38
2022-12-08T15:53:31.320Z,93292.47
2022-12-08T15:56:29.150Z,93296.44
2022-12-08T15:58:55.200Z,93288.66
2022-12-08T16:01:28.599Z,93290.69
2022-12-08T16:04:27.928Z,93289.34
2022-12-08T16:09:39.669Z,93285.22
2022-12-08T16:12:26.052Z,93295.47
2022-12-08T16:17:41.246Z,93290.59
2022-12-08T16:20:15.245Z,93291.13
2022-12-08T16:23:08.029Z,93288.41
2022-12-08T16:25:52.758Z,93296.50
2022-12-08T16:28:52.311Z,93289.25
2022-12-08T16:31:10.270Z,93287.25
2022-12-08T16:33:40.796Z,93281.50
2022-12-08T16:36:09.265Z,93277.75
2022-12-08T16:38:36.142Z,93279.63
2022-12-08T16:41:13.684Z,93278.22
2022-12-08T16:43:40.506Z,93290.13
2022-12-08T16:46:07.633Z,93297.53
2022-12-08T16:48:34.746Z,93285.75
2022-12-08T16:51:01.788Z,93290.50
2022-12-08T16:53:29.566Z,93288.63
2022-12-08T16:55:57.889Z,93290.84
2022-12-08T16:58:24.671Z,93297.84
2022-12-08T17:00:51.670Z,93297.75
2022-12-08T17:03:22.425Z,93294.53
2022-12-08T17:05:49.512Z,93300.34
2022-12-08T17:08:16.664Z,93286.22
2022-12-08T17:10:43.445Z,93292.31
2022-12-08T17:13:11.409Z,93305.72
2022-12-08T17:15:39.582Z,93297.97
2022-12-08T17:18:06.681Z,93294.16
2022-12-08T17:20:33.732Z,93293.09
2022-12-08T17:23:01.313Z,93286.44
2022-12-08T17:25:28.525Z,93293.97
2022-12-08T17:27:55.414Z,93294.56
2022-12-08T17:30:22.463Z,93292.09
2022-12-08T17:32:50.293Z,93297.47
2022-12-08T17:35:17.326Z,93289.28
2022-12-08T17:37:44.059Z,93288.72
2022-12-08T17:40:11.134Z,93290.75
2022-12-08T17:42:38.465Z,93283.50
2022-12-08T17:45:07.745Z,93283.84
2022-12-08T17:47:35.457Z,93276.56
2022-12-08T17:50:02.675Z,93282.81
2022-12-08T17:52:29.889Z,93283.72
2022-12-08T17:54:57.293Z,93293.88
2022-12-08T17:57:24.461Z,93285.72
2022-12-08T17:59:51.397Z,93280.94
2022-12-08T18:02:18.663Z,93271.38
2022-12-08T18:04:45.468Z,93279.69
2022-12-08T18:07:13.406Z,93271.84
2022-12-08T18:09:40.540Z,93271.84
2022-12-08T18:12:07.749Z,93268.91
2022-12-08T18:14:39.735Z,93265.69
2022-12-08T18:17:06.850Z,93260.91
2022-12-08T18:19:34.049Z,93271.13
2022-12-08T18:22:01.112Z,93261.25
2022-12-08T18:24:27.889Z,93251.25
2022-12-08T18:26:55.149Z,93256.50
2022-12-08T18:29:26.973Z,93253.28
2022-12-08T18:31:54.042Z,93250.53
2022-12-08T18:34:26.127Z,93249.78
2022-12-08T18:36:53.162Z,93263.22
2022-12-08T18:39:25.855Z,93263.16
2022-12-08T18:41:52.882Z,93253.91
2022-12-08T18:44:20.125Z,93239.91
2022-12-08T18:46:48.086Z,93229.34
2022-12-08T18:49:15.845Z,93229.72
2022-12-08T18:51:43.356Z,93224.94
2022-12-08T18:54:10.918Z,93221.53
2022-12-08T18:56:39.202Z,93215.75
2022-12-08T18:59:08.239Z,93220.53
2022-12-08T19:01:36.014Z,93221.63
2022-12-08T19:04:27.269Z,93225.53
2022-12-08T19:06:52.067Z,93222.91
2022-12-08T19:09:19.114Z,93228.88
2022-12-08T19:11:46.305Z,93229.41
2022-12-08T19:14:13.401Z,93225.38
2022-12-08T19:16:41.504Z,93222.63
2022-12-08T19:19:08.263Z,93220.16
2022-12-08T19:21:36.894Z,93212.03
2022-12-08T19:24:07.828Z,93209.00
2022-12-08T19:26:35.652Z,93220.00
2022-12-08T19:29:02.732Z,93220.56
2022-12-08T19:31:29.888Z,93224.41
2022-12-08T19:33:56.837Z,93223.44
2022-12-08T19:36:23.928Z,93231.59
2022-12-08T19:38:51.870Z,93225.69
2022-12-08T19:41:18.881Z,93217.66
2022-12-08T19:43:45.878Z,93219.28
2022-12-08T19:46:12.761Z,93215.13
2022-12-08T19:48:40.013Z,93214.06
2022-12-08T19:51:07.112Z,93212.94
2022-12-08T19:53:34.135Z,93207.53
2022-12-08T19:56:01.852Z,93206.22
2022-12-08T19:58:33.650Z,93211.06
2022-12-08T20:01:01.823Z,93218.06
2022-12-08T20:03:29.898Z,93209.69
2022-12-08T20:05:57.047Z,93206.88
2022-12-08T20:08:25.593Z,93206.69
2022-12-08T20:10:52.748Z,93196.78
2022-12-08T20:13:24.751Z,93197.38
2022-12-08T20:15:52.282Z,93189.19
2022-12-08T20:18:19.685Z,93197.44
2022-12-08T20:20:46.573Z,93196.78
2022-12-08T20:23:13.828Z,93197.78
2022-12-08T20:25:42.876Z,93193.47
2022-12-08T20:28:09.697Z,93187.19
2022-12-08T20:30:42.930Z,93186.25
2022-12-08T20:33:12.374Z,93181.75
2022-12-08T20:35:40.019Z,93184.38
2022-12-08T20:38:06.793Z,93185.09
2022-12-08T20:40:33.698Z,93186.41
2022-12-08T20:43:00.432Z,93187.88
2022-12-08T20:45:27.223Z,93178.16
2022-12-08T20:47:54.412Z,93175.25
2022-12-08T20:50:21.283Z,93167.53
2022-12-08T20:52:49.318Z,93166.78
2022-12-08T20:55:16.596Z,93174.59
2022-12-08T20:57:43.874Z,93178.75
2022-12-08T21:00:12.397Z,93175.22
2022-12-08T21:02:45.144Z,93177.56
2022-12-08T21:05:14.774Z,93171.41
2022-12-08T21:07:41.802Z,93175.41
2022-12-08T21:10:10.616Z,93176.78
2022-12-08T21:12:38.312Z,93180.31
2022-12-08T21:15:10.789Z,93193.81
2022-12-08T21:17:38.260Z,93201.00
2022-12-08T21:20:10.892Z,93198.41
2022-12-08T21:22:39.334Z,93215.16
2022-12-08T21:25:07.626Z,93214.44
2022-12-08T21:27:34.398Z,93208.13
2022-12-08T21:30:02.863Z,93203.28
2022-12-08T21:32:34.811Z,93191.84
2022-12-08T21:35:02.335Z,93201.53
2022-12-08T21:37:29.522Z,93204.38
2022-12-08T21:39:56.630Z,93199.50
2022-12-08T21:42:24.966Z,93202.31
2022-12-08T21:44:59.807Z,93198.63
2022-12-08T21:47:27.065Z,93196.47
2022-12-08T21:49:56.688Z,93200.44
2022-12-08T21:52:26.989Z,93203.97
2022-12-08T21:54:53.891Z,93197.53
2022-12-08T21:57:21.021Z,93192.72
2022-12-08T21:59:50.906Z,93196.59
2022-12-08T22:02:22.225Z,93195.53
2022-12-08T22:04:50.564Z,93196.16
2022-12-08T22:07:17.511Z,93195.84
2022-12-08T22:09:44.739Z,93188.47
2022-12-08T22:12:12.215Z,93196.78
2022-12-08T22:14:39.949Z,93199.25
2022-12-08T22:17:07.882Z,93199.19
2022-12-08T22:19:35.484Z,93190.44
2022-12-08T22:22:07.273Z,93186.75
2022-12-08T22:24:34.521Z,93183.13
2022-12-08T22:27:02.389Z,93175.53
2022-12-08T22:29:29.801Z,93177.69
2022-12-08T22:31:57.575Z,93180.94
2022-12-08T22:34:29.554Z,93176.94
2022-12-08T22:37:01.716Z,93170.88
2022-12-08T22:39:33.401Z,93173.50
2022-12-08T22:42:03.345Z,93173.34
2022-12-08T22:44:31.132Z,93177.75
2022-12-08T22:46:58.293Z,93180.31
2022-12-08T22:49:28.254Z,93181.72
2022-12-08T22:51:55.363Z,93170.63
2022-12-08T22:54:22.174Z,93173.00
2022-12-08T22:56:48.915Z,93162.25
2022-12-08T22:59:16.082Z,93152.94
2022-12-08T23:01:43.353Z,93158.03
2022-12-08T23:04:18.419Z,93154.09
2022-12-08T23:06:45.805Z,93151.72
2022-12-08T23:09:13.983Z,93142.84
2022-12-08T23:11:46.762Z,93136.41
2022-12-08T23:14:16.043Z,93141.88
2022-12-08T23:16:48.505Z,93144.97
2022-12-08T23:19:15.755Z,93141.56
2022-12-08T23:21:43.149Z,93141.91
2022-12-08T23:24:12.917Z,93134.03
2022-12-08T23:26:40.051Z,93137.13
2022-12-08T23:29:07.284Z,93125.41
2022-12-08T23:31:34.129Z,93126.03
2022-12-08T23:34:02.569Z,93124.81
2022-12-08T23:36:32.977Z,93130.19
2022-12-08T23:39:00.226Z,93125.97
2022-12-08T23:41:27.562Z,93131.50
2022-12-08T23:43:54.995Z,93123.81
2022-12-08T23:46:22.633Z,93115.75
2022-12-08T23:48:50.643Z,93125.59
2022-12-08T23:51:17.756Z,93115.50
2022-12-08T23:53:47.504Z,93112.81
2022-12-08T23:56:15.674Z,93109.22
2022-12-08T23:58:43.643Z,93107.38
